Leamington, Canada
Current Conditions -  °F | °C
As of 11:00 AM on Wednesday 26 Nov 2014 (Local Time) from CYQG Reporting Station
Overcast Overcast  
Wind Chill: 24°   Ceiling: 3400
Heat Index: 32°   Visibility: 15mi
Dew Point: 23°   Wind: 9mph
Humidity: 69%   Direction: 70°ENE
Pressure: 30.16"   Gusts: NA
Location:  42.05°N, 82.6°W
Report Text: CYQG 261600Z 07008KT 15SM OVC034 00/M05 A3016 RMK SC8 SLP220
Loading
Personal Weather Stations






























Interactive Weather Map New forecast layout! Learn more

10-Day Weather Forecast

Advertisements
Track Severe Weather on mobile